Latest Weather Observations for Munglinup West

IDW60801

Issued at 7:32 pm WST Tuesday 21 April 2015 (issued every 30 minutes, with the page automatically refreshed every 10 minutes)

About weather observations | Map of weather stations | Latest weather observations for WA | Other Formats
Station Details ID: 012044 Name: MUNGLINUP WEST Lat: -33.55 Lon: 120.70 Height: 220.0 m
Data from the previous 72 hours. | See also: Recent months at Munglinup West
Date/Time
WST
Temp
°C
App
Temp
°C
Dew
Point
Rel
Hum
%
Delta-T
°C
Wind Press
QNH
hPa
Press
MSL
hPa
Rain
since 9 am
mm
Dir
 
Spd
km/h
Gust
km/h
Spd
kts
Gust
kts
21/07:30pm 13.4 10.4 7.6 68 2.9 E 13 15 7 8 1022.4 1021.9 0.0
21/07:00pm 14.5 12.0 8.2 66 3.2 E 11 15 6 8 1022.3 1021.8 0.0
21/06:30pm 15.7 12.4 8.2 61 3.8 ESE 15 19 8 10 1021.9 1021.4 0.0
21/06:00pm 16.9 13.7 7.0 52 5.0 E 13 17 7 9 1021.8 1021.3 0.0
21/05:30pm 18.4 14.7 4.6 40 6.7 ESE 13 17 7 9 1021.6 1021.0 0.0
21/05:00pm 21.4 18.6 3.1 30 8.8 SE 7 9 4 5 1021.3 1020.7 0.0
21/04:30pm 23.7 20.6 0.1 21 10.9 NE 6 11 3 6 1021.3 1020.7 0.0
21/04:00pm 24.1 21.0 1.1 22 10.8 NE 7 11 4 6 1021.4 1020.8 0.0
21/03:30pm 24.4 21.2 0.7 21 11.1 NNW 7 11 4 6 1021.5 1020.9 0.0
21/03:00pm 24.6 21.3 0.2 20 11.3 NNE 7 13 4 7 1021.6 1021.0 0.0
21/02:30pm 24.1 20.7 -0.9 19 11.4 NNW 7 13 4 7 1021.8 1021.3 0.0
21/02:00pm 24.1 21.8 2.9 25 10.3 NNW 4 9 2 5 1022.1 1021.6 0.0
21/01:30pm 23.2 20.5 3.7 28 9.6 NW 7 20 4 11 1022.5 1022.0 0.0
21/01:00pm 21.7 18.6 3.4 30 8.8 WNW 9 17 5 9 1022.8 1022.3 0.0
21/12:30pm 22.5 18.8 2.1 26 9.7 NNW 11 17 6 9 1023.3 1022.8 0.0
21/12:00pm 21.8 17.8 3.0 29 9.0 N 13 20 7 11 1023.8 1023.3 0.0
21/11:30am 22.2 17.9 3.3 29 9.2 NNW 15 26 8 14 1024.5 1023.9 0.0
21/11:00am 21.3 16.5 4.4 33 8.3 N 19 28 10 15 1025.0 1024.4 0.0
21/10:30am 19.6 13.6 3.3 34 7.8 N 24 35 13 19 1025.4 1024.8 0.0
21/10:00am 19.7 14.3 4.6 37 7.3 N 22 32 12 17 1025.6 1025.0 0.0
21/09:30am 18.5 13.6 5.0 41 6.6 N 20 30 11 16 1025.8 1025.3 0.0
21/09:00am 17.3 12.5 5.6 46 5.7 N 20 30 11 16 1026.0 1025.5 0.0
21/08:30am 15.3 10.1 5.5 52 4.7 N 22 35 12 19 1026.2 1025.7 0.0
21/08:00am 12.3 7.4 5.2 62 3.3 NNE 20 26 11 14 1026.2 1025.7 0.0
21/07:30am 8.8 4.0 4.6 75 1.9 NNE 19 24 10 13 1026.1 1025.6 0.0
21/07:00am 8.5 3.6 4.1 74 1.9 NNE 19 24 10 13 1025.8 1025.3 0.0
21/06:30am 7.8 3.2 3.7 75 1.8 NNE 17 20 9 11 1025.8 1025.3 0.0
21/06:00am 8.4 3.8 3.8 73 2.0 NNE 17 20 9 11 1025.9 1025.4 0.0
21/05:30am 9.1 4.6 4.3 72 2.1 NE 17 19 9 10 1025.9 1025.4 0.0
21/05:00am 8.8 4.3 4.0 72 2.1 NE 17 20 9 11 1025.7 1025.2 0.0
21/04:30am 9.2 4.7 4.2 71 2.2 NNE 17 20 9 11 1025.7 1025.2 0.0
21/04:00am 9.6 5.1 4.2 69 2.4 NNE 17 22 9 12 1025.8 1025.3 0.0
21/03:30am 10.4 5.9 4.3 66 2.7 NNE 17 22 9 12 1025.8 1025.3 0.0
21/03:00am 11.0 6.2 4.5 64 2.9 NNE 19 22 10 12 1025.8 1025.3 0.0
21/02:30am 11.6 6.8 4.6 62 3.2 NNE 19 26 10 14 1025.9 1025.4 0.0
21/02:00am 11.7 7.3 4.9 63 3.1 NE 17 22 9 12 1026.1 1025.6 0.0
21/01:30am 11.5 7.1 4.9 64 3.0 NE 17 20 9 11 1026.4 1025.9 0.0
21/01:00am 11.6 7.7 5.3 65 2.9 NNE 15 20 8 11 1026.5 1026.0 0.0
21/12:30am 11.6 7.4 5.5 66 2.9 NNE 17 22 9 12 1026.5 1026.0 0.0
21/12:00am 12.4 8.9 5.6 63 3.2 NNE 13 17 7 9 1026.6 1026.1 0.0
 
Date/Time
WST
Temp
°C
App
Temp
°C
Dew
Point
Rel
Hum
%
Delta-T
°C
Wind Press
QNH
hPa
Press
MSL
hPa
Rain
since 9 am
mm
Dir
 
Spd
km/h
Gust
km/h
Spd
kts
Gust
kts
20/11:30pm 13.2 9.0 5.9 61 3.5 NE 17 20 9 11 1026.8 1026.3 0.0
20/11:00pm 12.6 8.5 6.0 64 3.1 NE 17 22 9 12 1026.9 1026.4 0.0
20/10:30pm 12.8 9.4 5.9 63 3.3 NE 13 17 7 9 1027.1 1026.6 0.0
20/10:00pm 13.7 10.0 6.1 60 3.6 NE 15 19 8 10 1027.1 1026.6 0.0
20/09:30pm 13.8 10.1 6.4 61 3.6 ENE 15 20 8 11 1027.1 1026.6 0.0
20/09:00pm 13.9 10.2 6.5 61 3.6 ENE 15 20 8 11 1027.1 1026.6 0.0
20/08:30pm 14.2 10.6 6.8 61 3.6 ENE 15 19 8 10 1027.1 1026.6 0.0
20/08:00pm 13.9 10.0 7.0 63 3.4 ENE 17 19 9 10 1026.9 1026.4 0.0
20/07:30pm 14.4 11.2 7.0 61 3.7 ENE 13 17 7 9 1027.0 1026.5 0.0
20/07:00pm 15.7 12.2 7.0 56 4.3 ENE 15 17 8 9 1027.0 1026.5 0.0
20/06:30pm 15.9 12.4 7.1 56 4.4 ENE 15 17 8 9 1026.7 1026.2 0.0
20/06:00pm 16.8 13.3 7.2 53 4.8 ENE 15 19 8 10 1026.6 1026.1 0.0
20/05:30pm 18.1 15.4 7.2 49 5.5 E 11 13 6 7 1026.5 1026.0 0.0
20/05:00pm 20.7 17.5 7.0 41 7.0 ENE 13 19 7 10 1026.4 1025.9 0.0
20/04:30pm 22.0 18.5 7.0 38 7.8 ENE 15 20 8 11 1026.5 1026.0 0.0
20/04:00pm 22.7 19.9 6.9 36 8.2 NE 11 19 6 10 1026.6 1026.1 0.0
20/03:30pm 23.1 19.9 6.8 35 8.5 NE 13 20 7 11 1026.6 1026.1 0.0
20/03:00pm 23.0 19.3 6.3 34 8.6 NE 15 22 8 12 1026.7 1026.2 0.0
20/02:30pm 23.0 19.5 7.1 36 8.3 NNE 15 22 8 12 1026.9 1026.4 0.0
20/02:00pm 23.1 18.9 7.6 37 8.1 NE 19 28 10 15 1027.0 1026.5 0.0
20/01:30pm 22.7 18.9 7.7 38 7.9 NNE 17 26 9 14 1027.4 1026.9 0.0
20/01:00pm 22.2 18.6 8.3 41 7.4 NE 17 28 9 15 1027.7 1027.2 0.0
20/12:30pm 22.2 19.1 8.7 42 7.2 NE 15 32 8 17 1028.3 1027.8 0.0
20/12:00pm 20.9 16.8 8.5 45 6.5 NE 20 32 11 17 1029.0 1028.5 0.0
20/11:30am 20.9 16.5 8.9 46 6.4 NNE 22 33 12 18 1029.6 1029.0 0.0
20/11:00am 20.2 15.7 8.5 47 6.1 NE 22 35 12 19 1029.9 1029.4 0.0
20/10:30am 19.8 15.4 9.1 50 5.7 NNE 22 32 12 17 1030.4 1029.9 0.0
20/10:00am 18.9 14.5 9.1 53 5.2 NNE 22 33 12 18 1030.7 1030.2 0.0
20/09:30am 17.4 12.6 8.8 57 4.5 NNE 24 32 13 17 1031.2 1030.7 0.0
20/09:00am 15.9 9.9 8.6 62 3.7 NNE 30 41 16 22 1031.3 1030.8 0.0
20/08:30am 15.1 9.5 8.8 66 3.2 NNE 28 37 15 20 1031.6 1031.1 0.0
20/08:00am 13.6 8.8 8.9 73 2.4 NNE 24 35 13 19 1031.5 1031.0 0.0
20/07:30am 12.0 7.9 8.5 79 1.8 NNE 20 28 11 15 1031.4 1030.9 0.0
20/07:00am 10.5 6.4 7.9 84 1.3 NE 19 26 10 14 1031.1 1030.6 0.0
20/06:30am 9.4 5.2 7.3 87 1.0 NE 19 28 10 15 1030.7 1030.2 0.0
20/06:00am 9.3 5.0 7.1 86 1.0 NE 19 26 10 14 1030.7 1030.2 0.0
20/05:30am 9.2 4.9 7.0 86 1.0 NE 19 24 10 13 1030.6 1030.1 0.0
20/05:00am 8.6 4.9 6.4 86 1.0 NE 15 19 8 10 1030.7 1030.2 0.0
20/04:30am 8.9 5.2 6.3 84 1.2 NNE 15 20 8 11 1030.5 1030.0 0.0
20/04:00am 8.8 5.4 6.1 83 1.2 NNE 13 17 7 9 1030.4 1029.9 0.0
20/03:30am 10.1 6.4 6.4 78 1.7 NNE 15 22 8 12 1030.2 1029.7 0.0
20/03:00am 9.9 5.9 6.8 81 1.5 NE 17 22 9 12 1030.3 1029.8 0.0
20/02:30am 10.1 5.6 6.8 80 1.6 NE 20 24 11 13 1030.3 1029.8 0.0
20/02:00am 10.3 5.4 6.8 79 1.7 ENE 22 28 12 15 1030.3 1029.8 0.0
20/01:30am 10.6 6.1 6.9 78 1.8 ENE 20 24 11 13 1030.5 1030.0 0.0
20/01:00am 10.7 6.8 7.0 78 1.8 ENE 17 20 9 11 1030.7 1030.2 0.0
20/12:30am 11.1 6.8 6.8 75 2.1 ENE 19 24 10 13 1030.6 1030.1 0.0
20/12:00am 11.6 7.6 6.7 72 2.3 NE 17 20 9 11 1030.5 1030.0 0.0
 
Date/Time
WST
Temp
°C
App
Temp
°C
Dew
Point
Rel
Hum
%
Delta-T
°C
Wind Press
QNH
hPa
Press
MSL
hPa
Rain
since 9 am
mm
Dir
 
Spd
km/h
Gust
km/h
Spd
kts
Gust
kts
19/11:30pm 12.1 8.2 7.0 71 2.5 NE 17 22 9 12 1030.4 1029.9 0.0
19/11:00pm 12.3 8.0 7.0 70 2.6 NE 19 22 10 12 1030.5 1030.0 0.0
19/10:30pm 12.8 8.5 7.0 68 2.8 ENE 19 24 10 13 1030.7 1030.2 0.0
19/10:00pm 13.0 8.7 7.0 67 2.9 ENE 19 24 10 13 1030.8 1030.3 0.0
19/09:30pm 13.5 9.2 6.8 64 3.3 ENE 19 24 10 13 1030.8 1030.3 0.0
19/09:00pm 13.7 9.8 7.0 64 3.3 ENE 17 20 9 11 1030.7 1030.2 0.0
19/08:30pm 13.9 9.9 6.7 62 3.5 ENE 17 20 9 11 1030.7 1030.2 0.0
19/08:00pm 14.1 10.2 6.9 62 3.5 ENE 17 19 9 10 1030.4 1029.9 0.0
19/07:30pm 14.6 10.8 7.4 62 3.6 ENE 17 20 9 11 1030.3 1029.8 0.0
19/07:00pm 15.3 11.6 7.8 61 3.8 ENE 17 20 9 11 1030.0 1029.5 0.0
19/06:30pm 15.8 12.6 8.3 61 3.8 ENE 15 20 8 11 1029.7 1029.2 0.0
19/06:00pm 16.9 13.7 8.6 58 4.3 ENE 15 17 8 9 1029.6 1029.0 0.0
19/05:30pm 18.3 15.3 9.1 55 4.9 ENE 15 19 8 10 1029.3 1028.7 0.0
19/05:00pm 20.4 17.0 9.0 48 6.0 ENE 17 22 9 12 1029.0 1028.5 0.0
19/04:30pm 21.7 18.3 9.3 45 6.7 ENE 17 24 9 13 1028.8 1028.3 0.0
19/04:00pm 22.5 19.6 9.6 44 7.0 ENE 15 22 8 12 1028.8 1028.3 0.0
19/03:30pm 22.6 18.9 9.4 43 7.2 ENE 19 30 10 16 1028.8 1028.3 0.0
19/03:00pm 22.9 20.0 9.7 43 7.2 NE 15 28 8 15 1028.8 1028.3 0.0
19/02:30pm 22.8 19.3 10.3 45 6.9 NE 19 30 10 16 1028.8 1028.3 0.0
19/02:00pm 22.9 19.8 10.3 45 6.9 NE 17 24 9 13 1028.9 1028.4 0.0
19/01:30pm 22.4 19.4 10.5 47 6.6 NE 17 28 9 15 1029.0 1028.5 0.0
19/01:00pm 22.3 18.9 11.1 49 6.2 NNE 20 33 11 18 1029.4 1028.8 0.0
19/12:30pm 21.4 17.8 10.6 50 6.0 NNE 20 32 11 17 1029.8 1029.3 0.0
19/12:00pm 21.1 17.5 10.6 51 5.8 NE 20 28 11 15 1030.3 1029.8 0.0
19/11:30am 20.2 16.1 10.0 52 5.5 NE 22 33 12 18 1030.7 1030.2 0.0
19/11:00am 19.2 14.5 9.4 53 5.2 NNE 24 35 13 19 1031.3 1030.8 0.0
19/10:30am 19.0 14.5 10.0 56 4.9 NE 24 35 13 19 1031.5 1031.0 0.0
19/10:00am 17.4 11.9 9.3 59 4.2 NNE 28 41 15 22 1031.7 1031.2 0.0
19/09:30am 16.8 10.6 9.2 61 4.0 NNE 32 44 17 24 1031.9 1031.4 0.0
19/09:00am 15.4 9.1 9.1 66 3.2 NNE 32 44 17 24 1032.0 1031.5 0.6
19/08:30am 14.7 8.4 9.1 69 2.9 NE 32 41 17 22 1031.9 1031.4 0.6
19/08:00am 13.2 8.0 8.9 75 2.2 NE 26 35 14 19 1031.6 1031.1 0.6
19/07:30am 11.6 7.2 8.8 83 1.4 NE 22 33 12 18 1031.4 1030.9 0.6
19/07:00am 9.9 5.3 8.2 89 0.8 NE 22 28 12 15 1031.1 1030.6 0.6
19/06:30am 9.0 4.6 7.6 91 0.7 NE 20 26 11 14 1030.9 1030.4 0.6
19/06:00am 9.0 4.3 7.6 91 0.7 NE 22 30 12 16 1030.6 1030.1 0.6
19/05:30am 8.9 4.5 7.4 90 0.7 NE 20 28 11 15 1030.5 1030.0 0.6
19/05:00am 9.2 4.4 7.5 89 0.8 NE 22 28 12 15 1030.3 1029.8 0.6
19/04:30am 9.5 4.8 7.6 88 0.9 NE 22 30 12 16 1030.1 1029.6 0.6
19/04:00am 9.6 4.8 7.5 87 1.0 ENE 22 32 12 17 1029.8 1029.3 0.6
19/03:30am 9.5 5.3 7.4 87 1.0 ENE 19 26 10 14 1029.8 1029.3 0.6
19/03:00am 9.8 5.6 7.4 85 1.1 ENE 19 26 10 14 1029.8 1029.3 0.6
19/02:30am 10.3 6.1 7.5 83 1.4 ENE 19 28 10 15 1029.7 1029.2 0.6
19/02:00am 10.9 6.8 7.8 81 1.5 ENE 19 26 10 14 1029.8 1029.3 0.6
19/01:30am 11.3 7.3 8.2 81 1.5 ENE 19 24 10 13 1029.9 1029.4 0.6
19/01:00am 11.5 7.3 8.4 81 1.5 ENE 20 28 11 15 1030.0 1029.5 0.6
19/12:30am 11.2 7.6 8.4 83 1.4 ENE 17 20 9 11 1029.9 1029.4 0.6
19/12:00am 11.7 7.8 8.6 81 1.5 ENE 19 24 10 13 1030.1 1029.6 0.6
 
Date/Time
WST
Temp
°C
App
Temp
°C
Dew
Point
Rel
Hum
%
Delta-T
°C
Wind Press
QNH
hPa
Press
MSL
hPa
Rain
since 9 am
mm
Dir
 
Spd
km/h
Gust
km/h
Spd
kts
Gust
kts
18/11:30pm 12.2 7.6 8.3 77 1.9 ENE 22 28 12 15 1029.9 1029.4 0.6
18/11:00pm 12.1 8.0 8.6 79 1.7 E 20 28 11 15 1030.0 1029.5 0.6
18/10:30pm 11.6 8.1 8.8 83 1.4 E 17 20 9 11 1030.0 1029.5 0.6
18/10:00pm 12.1 8.7 9.3 83 1.4 E 17 24 9 13 1030.0 1029.5 0.6
18/09:30pm 12.4 8.7 9.6 83 1.4 E 19 24 10 13 1029.8 1029.3 0.6
18/09:00pm 13.0 10.5 9.8 81 1.6 E 13 19 7 10 1029.7 1029.2 0.6
18/08:30pm 13.3 10.0 9.5 78 2.0 E 17 22 9 12 1029.7 1029.2 0.6
18/08:00pm 13.7 10.8 9.7 77 2.1 E 15 20 8 11 1029.5 1028.9 0.6

Other Formats:

Comma delimited format used in spreadsheet applications
http://www.bom.gov.au/fwo/IDW60801/IDW60801.95644.axf

JavaScript Object Notation format (JSON) in row-major order
http://www.bom.gov.au/fwo/IDW60801/IDW60801.95644.json